createdAt,value
2023-05-14T00:01:46.433Z,12.87
2023-05-14T00:04:14.626Z,12.90
2023-05-14T00:06:42.620Z,12.66
2023-05-14T00:09:10.671Z,12.80
2023-05-14T00:11:38.669Z,12.75
2023-05-14T00:14:08.007Z,12.88
2023-05-14T00:16:36.051Z,12.83
2023-05-14T00:19:04.160Z,12.72
2023-05-14T00:21:32.604Z,12.72
2023-05-14T00:24:00.571Z,12.71
2023-05-14T00:26:28.545Z,12.64
2023-05-14T00:28:56.458Z,12.54
2023-05-14T00:31:25.849Z,12.56
2023-05-14T00:33:53.931Z,12.56
2023-05-14T00:36:21.837Z,12.49
2023-05-14T00:38:50.720Z,12.49
2023-05-14T00:41:18.676Z,12.46
2023-05-14T00:43:46.603Z,12.37
2023-05-14T00:46:16.347Z,12.46
2023-05-14T00:48:45.951Z,12.37
2023-05-14T00:51:14.234Z,12.34
2023-05-14T00:53:43.090Z,12.31
2023-05-14T00:56:11.565Z,12.38
2023-05-14T00:58:39.540Z,12.32
2023-05-14T01:01:07.503Z,12.37
2023-05-14T01:03:37.090Z,12.42
2023-05-14T01:06:18.429Z,12.50
2023-05-14T01:08:59.670Z,12.39
2023-05-14T01:11:34.802Z,12.32
2023-05-14T01:14:14.390Z,12.38
2023-05-14T01:16:46.749Z,12.40
2023-05-14T01:19:30.974Z,12.38
2023-05-14T01:22:00.319Z,12.37
2023-05-14T01:24:29.470Z,12.32
2023-05-14T01:27:04.922Z,12.37
2023-05-14T01:29:36.188Z,12.37
2023-05-14T01:32:09.066Z,12.29
2023-05-14T01:34:38.835Z,12.28
2023-05-14T01:37:12.176Z,12.29
2023-05-14T01:39:42.216Z,12.18
2023-05-14T01:42:11.305Z,12.15
2023-05-14T01:44:39.409Z,12.09
2023-05-14T01:47:07.358Z,12.05
2023-05-14T01:49:37.054Z,12.13
2023-05-14T01:52:05.626Z,12.09
2023-05-14T01:54:35.032Z,12.05
2023-05-14T01:57:02.951Z,11.98
2023-05-14T01:59:30.995Z,11.91
2023-05-14T02:01:59.010Z,12.00
2023-05-14T02:04:27.134Z,11.88
2023-05-14T02:06:55.080Z,11.86
2023-05-14T02:09:23.138Z,11.87
2023-05-14T02:11:52.452Z,11.83
2023-05-14T02:14:20.620Z,11.83
2023-05-14T02:16:48.616Z,11.67
2023-05-14T02:19:16.592Z,11.81
2023-05-14T02:21:44.704Z,11.76
2023-05-14T02:24:12.655Z,11.93
2023-05-14T02:26:40.985Z,11.85
2023-05-14T02:29:10.473Z,11.79
2023-05-14T02:31:38.789Z,11.76
2023-05-14T02:34:07.549Z,12.00
2023-05-14T02:36:35.639Z,12.07
2023-05-14T02:39:04.627Z,12.19
2023-05-14T02:41:32.615Z,11.98
2023-05-14T02:44:00.680Z,11.95
2023-05-14T02:46:30.145Z,11.99
2023-05-14T02:48:58.138Z,12.08
2023-05-14T02:51:27.061Z,12.16
2023-05-14T02:53:55.113Z,12.30
2023-05-14T02:56:23.505Z,12.39
2023-05-14T02:58:51.469Z,12.39
2023-05-14T03:01:19.831Z,12.51
2023-05-14T03:03:50.193Z,12.25
2023-05-14T03:06:18.550Z,12.35
2023-05-14T03:08:46.833Z,12.31
2023-05-14T03:11:14.837Z,12.35
2023-05-14T03:13:42.787Z,12.31
2023-05-14T03:16:11.364Z,12.34
2023-05-14T03:18:39.479Z,12.37
2023-05-14T03:21:09.453Z,12.21
2023-05-14T03:23:38.843Z,12.24
2023-05-14T03:26:06.910Z,12.38
2023-05-14T03:28:34.762Z,12.19
2023-05-14T03:31:10.356Z,12.12
2023-05-14T03:33:39.127Z,11.95
2023-05-14T03:36:09.154Z,12.15
2023-05-14T03:38:37.227Z,12.31
2023-05-14T03:41:05.417Z,12.51
2023-05-14T03:43:33.368Z,12.27
2023-05-14T03:46:01.378Z,12.38
2023-05-14T03:48:29.533Z,12.51
2023-05-14T03:50:57.890Z,12.53
2023-05-14T03:53:27.285Z,12.28
2023-05-14T03:55:55.369Z,12.30
2023-05-14T03:58:23.431Z,12.41
2023-05-14T04:00:51.722Z,12.60
2023-05-14T04:03:19.777Z,12.76
2023-05-14T04:05:47.972Z,12.45
2023-05-14T04:08:16.243Z,12.39
2023-05-14T04:10:45.624Z,12.64
2023-05-14T04:13:13.583Z,12.92
2023-05-14T04:15:41.674Z,12.88
2023-05-14T04:18:09.697Z,13.24
2023-05-14T04:20:37.846Z,13.40
2023-05-14T04:23:05.903Z,13.63
2023-05-14T04:25:33.829Z,13.68
2023-05-14T04:28:03.394Z,13.52
2023-05-14T04:30:31.363Z,13.72
2023-05-14T04:32:59.428Z,13.62
2023-05-14T04:35:27.682Z,13.64
2023-05-14T04:37:55.698Z,13.38
2023-05-14T04:40:23.864Z,13.45
2023-05-14T04:42:52.080Z,13.37
2023-05-14T04:45:21.718Z,13.44
2023-05-14T04:47:49.849Z,13.23
2023-05-14T04:50:17.948Z,13.20
2023-05-14T04:52:45.915Z,13.21
2023-05-14T04:55:13.828Z,13.29
2023-05-14T04:57:41.759Z,13.51
2023-05-14T05:00:11.840Z,14.01
2023-05-14T05:02:41.404Z,14.72
2023-05-14T05:05:10.652Z,15.45
2023-05-14T05:07:38.577Z,16.26
2023-05-14T05:10:08.217Z,16.42
2023-05-14T05:12:36.528Z,16.45
2023-05-14T05:15:04.968Z,17.62
2023-05-14T05:17:32.941Z,18.01
2023-05-14T05:20:02.348Z,18.20
2023-05-14T05:22:30.461Z,18.81
2023-05-14T05:24:59.763Z,18.49
2023-05-14T05:27:28.075Z,17.81
2023-05-14T05:29:56.029Z,16.89
2023-05-14T05:32:24.092Z,15.90
2023-05-14T05:34:52.581Z,15.51
2023-05-14T05:37:21.920Z,15.73
2023-05-14T05:39:49.877Z,15.41
2023-05-14T05:42:17.828Z,15.76
2023-05-14T05:44:45.924Z,16.14
2023-05-14T05:47:14.053Z,16.35
2023-05-14T05:49:42.044Z,16.56
2023-05-14T05:52:10.230Z,16.68
2023-05-14T05:54:39.794Z,16.80
2023-05-14T05:57:07.894Z,16.45
2023-05-14T05:59:36.139Z,16.11
2023-05-14T06:02:04.246Z,16.02
2023-05-14T06:04:32.264Z,16.08
2023-05-14T06:07:00.293Z,16.21
2023-05-14T06:09:28.290Z,16.09
2023-05-14T06:11:57.705Z,16.77
2023-05-14T06:14:27.833Z,16.84
2023-05-14T06:16:59.925Z,16.91
2023-05-14T06:19:28.559Z,17.19
2023-05-14T06:21:56.556Z,17.44
2023-05-14T06:24:24.489Z,17.45
2023-05-14T06:26:52.565Z,17.62
2023-05-14T06:29:21.953Z,17.52
2023-05-14T06:31:49.974Z,17.64
2023-05-14T06:34:18.005Z,17.88
2023-05-14T06:36:45.893Z,17.88
2023-05-14T06:39:13.869Z,17.66
2023-05-14T06:41:41.848Z,17.54
2023-05-14T06:44:09.776Z,17.40
2023-05-14T06:49:46.423Z,17.12
2023-05-14T06:52:14.574Z,17.44
2023-05-14T06:54:42.510Z,17.07
2023-05-14T06:57:10.558Z,17.57
2023-05-14T06:59:38.652Z,17.81
2023-05-14T07:02:08.538Z,17.96
2023-05-14T07:04:36.576Z,17.97
2023-05-14T07:07:05.741Z,17.85
2023-05-14T07:09:33.700Z,17.51
2023-05-14T07:12:01.644Z,17.32
2023-05-14T07:14:29.593Z,17.62
2023-05-14T07:16:58.221Z,17.78
2023-05-14T07:19:28.773Z,18.03
2023-05-14T07:21:57.460Z,17.76
2023-05-14T07:24:25.512Z,17.99
2023-05-14T07:26:54.341Z,17.95
2023-05-14T07:29:22.367Z,18.18
2023-05-14T07:31:50.425Z,18.25
2023-05-14T07:34:18.404Z,17.88
2023-05-14T07:36:48.125Z,17.97
2023-05-14T07:39:16.110Z,18.29
2023-05-14T07:41:44.243Z,18.21
2023-05-14T07:44:12.388Z,18.43
2023-05-14T07:46:40.952Z,18.22
2023-05-14T07:49:09.017Z,18.31
2023-05-14T07:51:37.002Z,18.69
2023-05-14T07:54:06.551Z,18.79
2023-05-14T07:56:34.536Z,19.14
2023-05-14T07:59:02.591Z,19.23
2023-05-14T08:01:31.265Z,19.51
2023-05-14T08:03:59.398Z,19.21
2023-05-14T08:06:28.240Z,19.40
2023-05-14T08:08:56.199Z,19.75
2023-05-14T08:11:26.124Z,19.74
2023-05-14T08:13:54.158Z,19.97
2023-05-14T08:16:22.184Z,19.93
2023-05-14T08:18:50.455Z,19.76
2023-05-14T08:21:18.705Z,19.85
2023-05-14T08:23:46.626Z,19.92
2023-05-14T08:26:14.566Z,20.12
2023-05-14T08:28:43.818Z,20.27
2023-05-14T08:31:11.774Z,20.10
2023-05-14T08:33:39.759Z,20.44
2023-05-14T08:36:11.153Z,20.23
2023-05-14T08:38:39.084Z,20.60
2023-05-14T08:41:08.464Z,20.58
2023-05-14T08:43:57.249Z,20.81
2023-05-14T08:46:27.494Z,20.70
2023-05-14T08:49:05.912Z,21.09
2023-05-14T08:51:34.929Z,21.23
2023-05-14T08:54:04.518Z,21.23
2023-05-14T08:56:34.368Z,21.15
2023-05-14T08:59:03.661Z,21.33
2023-05-14T09:01:32.425Z,21.70
2023-05-14T09:04:06.960Z,21.48
2023-05-14T09:06:38.525Z,20.78
2023-05-14T09:09:06.890Z,21.12
2023-05-14T09:11:34.943Z,21.42
2023-05-14T09:14:04.229Z,21.54
2023-05-14T09:16:33.044Z,21.51
2023-05-14T09:19:01.074Z,21.32
2023-05-14T09:21:32.144Z,21.82
2023-05-14T09:24:01.470Z,22.41
2023-05-14T09:26:34.339Z,22.41
2023-05-14T09:29:04.421Z,22.83
2023-05-14T09:31:34.716Z,22.27
2023-05-14T09:34:02.713Z,22.07
2023-05-14T09:36:31.548Z,22.05
2023-05-14T09:38:59.423Z,21.85
2023-05-14T09:41:27.620Z,21.67
2023-05-14T09:43:56.855Z,21.68
2023-05-14T09:46:30.090Z,21.83
2023-05-14T09:48:58.432Z,21.62
2023-05-14T09:51:26.660Z,21.26
2023-05-14T09:53:56.127Z,20.52
2023-05-14T09:56:24.210Z,21.09
2023-05-14T09:58:52.045Z,20.93
2023-05-14T10:01:21.189Z,20.99
2023-05-14T10:03:51.362Z,20.92
2023-05-14T10:06:24.554Z,20.95
2023-05-14T10:08:57.897Z,20.71
2023-05-14T10:11:29.693Z,20.71
2023-05-14T10:14:04.701Z,21.07
2023-05-14T10:16:36.320Z,21.23
2023-05-14T10:19:11.574Z,21.20
2023-05-14T10:21:43.188Z,20.88
2023-05-14T10:24:12.906Z,20.88
2023-05-14T10:26:42.698Z,21.11
2023-05-14T10:29:12.327Z,21.13
2023-05-14T10:31:48.423Z,21.66
2023-05-14T10:34:42.554Z,21.65
2023-05-14T10:37:13.353Z,21.40
2023-05-14T10:39:47.045Z,21.25
2023-05-14T10:42:18.669Z,21.20
2023-05-14T10:44:55.491Z,21.49
2023-05-14T10:47:23.907Z,21.35
2023-05-14T10:49:57.363Z,21.50
2023-05-14T10:52:26.433Z,21.69
2023-05-14T10:54:58.513Z,21.91
2023-05-14T10:57:29.621Z,21.95
2023-05-14T10:59:59.652Z,21.81
2023-05-14T11:02:30.462Z,21.92
2023-05-14T11:05:04.144Z,21.60
2023-05-14T11:07:35.108Z,21.72
2023-05-14T11:10:06.363Z,21.67
2023-05-14T11:12:35.813Z,21.73
2023-05-14T11:15:07.988Z,21.80
2023-05-14T11:17:38.092Z,21.66
2023-05-14T11:20:08.996Z,21.25
2023-05-14T11:22:38.720Z,20.79
2023-05-14T11:25:07.939Z,20.71
2023-05-14T11:27:40.062Z,20.46
2023-05-14T11:30:15.183Z,20.58
2023-05-14T11:32:45.953Z,20.65
2023-05-14T11:35:15.958Z,20.71
2023-05-14T11:37:44.333Z,20.62
2023-05-14T11:40:17.633Z,20.77
2023-05-14T11:42:46.034Z,20.76
2023-05-14T11:45:15.438Z,21.04
2023-05-14T11:47:43.578Z,21.20
2023-05-14T11:50:12.269Z,21.41
2023-05-14T11:52:42.529Z,21.69
2023-05-14T11:55:13.186Z,21.83
2023-05-14T11:57:41.896Z,21.73
2023-05-14T12:00:13.420Z,21.86
2023-05-14T12:02:41.695Z,21.78
2023-05-14T12:05:14.292Z,21.86
2023-05-14T12:07:46.585Z,21.88
2023-05-14T12:10:14.749Z,21.78
2023-05-14T12:12:48.223Z,21.67
2023-05-14T12:15:17.498Z,21.78
2023-05-14T12:17:52.000Z,21.58
2023-05-14T12:20:20.354Z,21.72
2023-05-14T12:22:49.786Z,21.70
2023-05-14T12:25:18.080Z,21.31
2023-05-14T12:27:46.606Z,21.05
2023-05-14T12:32:46.426Z,21.13
2023-05-14T12:35:14.472Z,21.32
2023-05-14T12:37:42.957Z,21.29
2023-05-14T12:40:13.457Z,21.27
2023-05-14T12:42:41.504Z,21.79
2023-05-14T12:45:10.016Z,22.00
2023-05-14T12:47:38.437Z,21.80
2023-05-14T12:50:08.102Z,21.76
2023-05-14T12:52:39.632Z,22.04
2023-05-14T12:55:09.307Z,21.84
2023-05-14T12:57:39.755Z,21.62
2023-05-14T13:00:12.231Z,22.54
2023-05-14T13:02:43.672Z,22.81
2023-05-14T13:05:13.543Z,22.42
2023-05-14T13:07:41.898Z,22.44
2023-05-14T13:10:11.401Z,22.18
2023-05-14T13:12:40.869Z,22.03
2023-05-14T13:15:10.636Z,22.21
2023-05-14T13:17:38.583Z,22.08
2023-05-14T13:20:08.500Z,22.13
2023-05-14T13:22:36.603Z,22.36
2023-05-14T13:25:04.966Z,22.64
2023-05-14T13:27:33.653Z,22.93
2023-05-14T13:30:03.119Z,22.49
2023-05-14T13:32:31.398Z,22.36
2023-05-14T13:34:59.305Z,22.07
2023-05-14T13:37:27.318Z,21.93
2023-05-14T13:39:55.367Z,21.86
2023-05-14T13:42:23.561Z,22.32
2023-05-14T13:44:51.532Z,22.09
2023-05-14T13:47:20.863Z,22.21
2023-05-14T13:49:48.866Z,22.14
2023-05-14T13:52:16.964Z,22.08
2023-05-14T13:54:45.108Z,21.86
2023-05-14T13:57:13.143Z,21.86
2023-05-14T13:59:41.273Z,21.62
2023-05-14T14:02:09.699Z,21.56
2023-05-14T14:04:39.287Z,21.87
2023-05-14T14:07:07.213Z,21.89
2023-05-14T14:09:36.735Z,22.09
2023-05-14T14:12:05.630Z,22.14
2023-05-14T14:14:33.589Z,21.85
2023-05-14T14:17:01.484Z,22.10
2023-05-14T14:19:29.383Z,22.04
2023-05-14T14:21:58.720Z,22.35
2023-05-14T14:24:26.862Z,22.65
2023-05-14T14:26:54.765Z,22.69
2023-05-14T14:29:23.919Z,22.48
2023-05-14T14:31:51.950Z,22.33
2023-05-14T14:34:20.669Z,22.25
2023-05-14T14:36:48.748Z,22.10
2023-05-14T14:39:17.968Z,21.86
2023-05-14T14:41:47.534Z,21.68
2023-05-14T14:44:15.552Z,21.53
2023-05-14T14:46:43.959Z,21.83
2023-05-14T14:49:11.873Z,21.51
2023-05-14T14:51:39.989Z,21.24
2023-05-14T14:54:08.114Z,21.23
2023-05-14T14:56:37.332Z,21.08
2023-05-14T14:59:05.417Z,21.20
2023-05-14T15:01:33.485Z,20.91
2023-05-14T15:04:01.622Z,20.67
2023-05-14T15:06:29.656Z,20.76
2023-05-14T15:08:57.571Z,20.51
2023-05-14T15:11:25.968Z,20.49
2023-05-14T15:13:55.294Z,20.42
2023-05-14T15:16:23.385Z,20.46
2023-05-14T15:18:51.411Z,20.38
2023-05-14T15:21:19.450Z,20.33
2023-05-14T15:23:47.540Z,20.42
2023-05-14T15:26:15.571Z,20.42
2023-05-14T15:28:43.516Z,20.61
2023-05-14T15:31:12.978Z,20.57
2023-05-14T15:33:41.622Z,20.67
2023-05-14T15:36:10.133Z,20.72
2023-05-14T15:38:38.135Z,20.50
2023-05-14T15:41:06.656Z,20.56
2023-05-14T15:43:34.591Z,20.71
2023-05-14T15:46:02.569Z,20.60
2023-05-14T15:48:31.929Z,20.41
2023-05-14T15:51:00.242Z,20.38
2023-05-14T15:53:28.351Z,20.34
2023-05-14T15:55:56.574Z,20.37
2023-05-14T15:58:24.559Z,20.51
2023-05-14T16:00:52.561Z,20.33
2023-05-14T16:03:20.960Z,20.49
2023-05-14T16:05:50.479Z,20.60
2023-05-14T16:08:18.535Z,20.63
2023-05-14T16:10:48.564Z,20.57
2023-05-14T16:13:16.655Z,20.63
2023-05-14T16:15:44.759Z,20.65
2023-05-14T16:18:12.802Z,20.82
2023-05-14T16:20:41.393Z,20.98
2023-05-14T16:23:10.712Z,20.76
2023-05-14T16:25:39.234Z,20.71
2023-05-14T16:28:07.924Z,20.85
2023-05-14T16:30:35.956Z,20.56
2023-05-14T16:33:04.064Z,20.68
2023-05-14T16:35:32.170Z,20.97
2023-05-14T16:38:00.189Z,21.00
2023-05-14T16:40:29.696Z,21.38
2023-05-14T16:42:58.205Z,21.05
2023-05-14T16:45:26.441Z,21.19
2023-05-14T16:47:54.728Z,20.89
2023-05-14T16:50:22.660Z,21.40
2023-05-14T16:52:50.654Z,21.24
2023-05-14T16:55:19.495Z,21.47
2023-05-14T16:57:48.994Z,21.96
2023-05-14T17:00:17.953Z,21.82
2023-05-14T17:02:48.970Z,21.73
2023-05-14T17:05:17.340Z,21.28
2023-05-14T17:07:45.250Z,20.72
2023-05-14T17:10:13.279Z,20.54
2023-05-14T17:12:41.291Z,20.86
2023-05-14T17:15:14.449Z,20.50
2023-05-14T17:17:45.420Z,20.55
2023-05-14T17:20:16.112Z,20.36
2023-05-14T17:22:44.921Z,20.21
2023-05-14T17:25:12.945Z,19.99
2023-05-14T17:27:40.931Z,19.97
2023-05-14T17:30:11.710Z,19.84
2023-05-14T17:32:41.374Z,19.85
2023-05-14T17:35:11.549Z,19.71
2023-05-14T17:37:39.762Z,19.45
2023-05-14T17:40:09.248Z,19.61
2023-05-14T17:42:37.305Z,19.52
2023-05-14T17:45:06.464Z,19.36
2023-05-14T17:47:35.815Z,19.35
2023-05-14T17:50:03.943Z,19.43
2023-05-14T17:52:31.931Z,19.30
2023-05-14T17:54:59.929Z,19.13
2023-05-14T17:57:28.008Z,19.10
2023-05-14T17:59:55.956Z,19.05
2023-05-14T18:02:23.864Z,19.06
2023-05-14T18:04:53.146Z,18.95
2023-05-14T18:07:22.487Z,18.92
2023-05-14T18:09:50.728Z,18.86
2023-05-14T18:12:18.654Z,18.74
2023-05-14T18:14:46.622Z,18.67
2023-05-14T18:17:14.656Z,18.59
2023-05-14T18:19:42.758Z,18.67
2023-05-14T18:22:12.152Z,18.54
2023-05-14T18:24:40.144Z,18.40
2023-05-14T18:27:08.211Z,18.48
2023-05-14T18:29:36.189Z,18.38
2023-05-14T18:32:04.283Z,18.29
2023-05-14T18:34:32.221Z,18.23
2023-05-14T18:37:00.408Z,18.16
2023-05-14T18:39:29.686Z,18.16
2023-05-14T18:41:57.635Z,18.07
2023-05-14T18:44:25.734Z,17.96
2023-05-14T18:46:55.625Z,17.77
2023-05-14T18:49:23.346Z,17.96
2023-05-14T18:51:56.481Z,17.75
2023-05-14T18:54:24.632Z,17.82
2023-05-14T18:56:54.250Z,17.85
2023-05-14T18:59:22.413Z,18.03
2023-05-14T19:01:50.513Z,17.92
2023-05-14T19:04:18.564Z,17.77
2023-05-14T19:06:46.546Z,17.57
2023-05-14T19:09:20.893Z,17.71
2023-05-14T19:11:49.134Z,17.51
2023-05-14T19:14:18.523Z,17.49
2023-05-14T19:16:46.691Z,17.55
2023-05-14T19:19:14.943Z,17.62
2023-05-14T19:21:42.890Z,17.45
2023-05-14T19:24:10.780Z,17.43
2023-05-14T19:26:39.271Z,17.49
2023-05-14T19:29:10.155Z,17.51
2023-05-14T19:31:39.625Z,17.59
2023-05-14T19:34:07.670Z,17.43
2023-05-14T19:36:35.668Z,17.54
2023-05-14T19:39:06.471Z,17.27
2023-05-14T19:41:37.009Z,17.10
2023-05-14T19:44:05.031Z,17.16
2023-05-14T19:47:25.694Z,16.97
2023-05-14T19:49:53.756Z,16.83
2023-05-14T19:52:21.859Z,16.76
2023-05-14T19:54:49.757Z,16.66
2023-05-14T19:57:18.693Z,16.54
2023-05-14T19:59:46.816Z,16.57
2023-05-14T20:02:18.095Z,16.37
2023-05-14T20:04:47.621Z,16.33
2023-05-14T20:07:16.393Z,16.24
2023-05-14T20:09:49.460Z,16.20
2023-05-14T20:12:20.720Z,16.21
2023-05-14T20:14:51.878Z,16.16
2023-05-14T20:17:20.796Z,16.19
2023-05-14T20:19:52.672Z,16.11
2023-05-14T20:22:20.641Z,16.18
2023-05-14T20:24:48.491Z,16.28
2023-05-14T20:27:16.429Z,16.52
2023-05-14T20:29:45.211Z,16.29
2023-05-14T20:32:13.129Z,16.17
2023-05-14T20:34:40.981Z,16.10
2023-05-14T20:37:12.135Z,16.24
2023-05-14T20:39:40.071Z,16.20
2023-05-14T20:42:10.504Z,16.23
2023-05-14T20:44:40.632Z,15.99
2023-05-14T20:47:08.714Z,16.09
2023-05-14T20:49:36.586Z,15.96
2023-05-14T20:52:04.872Z,16.05
2023-05-14T20:54:34.149Z,16.04
2023-05-14T20:57:02.125Z,15.84
2023-05-14T20:59:30.071Z,15.55
2023-05-14T21:01:58.056Z,15.48
2023-05-14T21:04:26.134Z,15.55
2023-05-14T21:06:54.165Z,15.51
2023-05-14T21:09:23.592Z,15.48
2023-05-14T21:11:53.100Z,15.43
2023-05-14T21:14:21.183Z,15.36
2023-05-14T21:16:49.805Z,15.34
2023-05-14T21:19:17.846Z,15.30
2023-05-14T21:21:47.213Z,15.30
2023-05-14T21:24:16.675Z,15.24
2023-05-14T21:26:44.699Z,15.21
2023-05-14T21:29:14.016Z,15.23
2023-05-14T21:31:44.252Z,15.13
2023-05-14T21:34:14.528Z,15.13
2023-05-14T21:36:42.646Z,15.11
2023-05-14T21:39:10.598Z,15.16
2023-05-14T21:41:40.696Z,15.16
2023-05-14T21:44:08.673Z,14.94
2023-05-14T21:46:40.722Z,14.92
2023-05-14T21:49:10.510Z,14.72
2023-05-14T21:51:38.176Z,14.74
2023-05-14T21:54:06.480Z,14.73
2023-05-14T21:56:36.099Z,14.62
2023-05-14T21:59:04.728Z,14.53
2023-05-14T22:01:35.564Z,14.61
2023-05-14T22:04:07.891Z,14.54
2023-05-14T22:06:36.289Z,14.64
2023-05-14T22:09:04.284Z,14.77
2023-05-14T22:11:32.188Z,14.73
2023-05-14T22:14:00.114Z,14.63
2023-05-14T22:16:28.079Z,14.54
2023-05-14T22:18:56.035Z,14.54
2023-05-14T22:21:27.884Z,14.48
2023-05-14T22:23:55.939Z,14.42
2023-05-14T22:26:23.875Z,14.41
2023-05-14T22:28:52.730Z,14.10
2023-05-14T22:31:20.890Z,14.00
2023-05-14T22:33:48.819Z,13.97
2023-05-14T22:36:19.017Z,13.93
2023-05-14T22:38:48.332Z,14.01
2023-05-14T22:41:17.409Z,13.94
2023-05-14T22:43:49.318Z,13.84
2023-05-14T22:46:19.911Z,13.82
2023-05-14T22:48:50.604Z,13.90
2023-05-14T22:51:21.414Z,13.80
2023-05-14T22:53:50.801Z,13.75
2023-05-14T22:56:20.280Z,13.69
2023-05-14T22:58:48.317Z,13.63
2023-05-14T23:01:16.955Z,13.63
2023-05-14T23:03:46.767Z,13.55
2023-05-14T23:06:14.720Z,13.56
2023-05-14T23:08:42.532Z,13.59
2023-05-14T23:11:11.855Z,13.47
2023-05-14T23:13:39.728Z,13.38
2023-05-14T23:16:08.296Z,13.43
2023-05-14T23:18:36.357Z,13.38
2023-05-14T23:21:04.468Z,13.30
2023-05-14T23:23:32.417Z,13.32
2023-05-14T23:26:00.575Z,13.33
2023-05-14T23:28:29.934Z,13.32
2023-05-14T23:30:57.959Z,13.27
2023-05-14T23:33:25.995Z,13.25
2023-05-14T23:35:54.049Z,13.26
2023-05-14T23:38:22.088Z,13.26
2023-05-14T23:40:50.154Z,13.19
2023-05-14T23:43:18.058Z,13.12
2023-05-14T23:45:47.466Z,13.12
2023-05-14T23:48:15.587Z,13.07
2023-05-14T23:50:43.862Z,12.93
2023-05-14T23:53:11.755Z,12.92
2023-05-14T23:55:39.684Z,12.91
2023-05-14T23:58:07.698Z,12.94
